sensor_id;sensor_type;location;lat;lon;timestamp;P1;durP1;ratioP1;P2;durP2;ratioP2
71836;SDS011;59686;51.716;7.016;2024-01-16T00:00:31;7.43;;;4.30;;
71836;SDS011;59686;51.716;7.016;2024-01-16T00:02:57;8.13;;;4.43;;
71836;SDS011;59686;51.716;7.016;2024-01-16T00:05:22;7.80;;;4.27;;
71836;SDS011;59686;51.716;7.016;2024-01-16T00:07:48;6.83;;;4.40;;
71836;SDS011;59686;51.716;7.016;2024-01-16T00:10:32;5.90;;;3.93;;
71836;SDS011;59686;51.716;7.016;2024-01-16T00:12:58;9.50;;;4.43;;
71836;SDS011;59686;51.716;7.016;2024-01-16T00:15:24;9.00;;;4.47;;
71836;SDS011;59686;51.716;7.016;2024-01-16T00:17:49;9.20;;;5.07;;
71836;SDS011;59686;51.716;7.016;2024-01-16T00:20:16;8.63;;;4.77;;
71836;SDS011;59686;51.716;7.016;2024-01-16T00:22:49;10.63;;;4.90;;
71836;SDS011;59686;51.716;7.016;2024-01-16T00:25:14;5.73;;;4.13;;
71836;SDS011;59686;51.716;7.016;2024-01-16T00:27:40;7.47;;;4.60;;
71836;SDS011;59686;51.716;7.016;2024-01-16T00:30:07;6.83;;;4.80;;
71836;SDS011;59686;51.716;7.016;2024-01-16T00:32:37;7.80;;;4.10;;
71836;SDS011;59686;51.716;7.016;2024-01-16T00:35:04;6.80;;;4.20;;
71836;SDS011;59686;51.716;7.016;2024-01-16T00:37:30;8.37;;;4.70;;
71836;SDS011;59686;51.716;7.016;2024-01-16T00:39:55;7.13;;;4.47;;
71836;SDS011;59686;51.716;7.016;2024-01-16T00:42:21;7.90;;;4.20;;
71836;SDS011;59686;51.716;7.016;2024-01-16T00:44:47;6.93;;;4.40;;
71836;SDS011;59686;51.716;7.016;2024-01-16T00:47:13;6.80;;;4.00;;
71836;SDS011;59686;51.716;7.016;2024-01-16T00:49:38;5.13;;;3.63;;
71836;SDS011;59686;51.716;7.016;2024-01-16T00:52:04;10.97;;;4.30;;
71836;SDS011;59686;51.716;7.016;2024-01-16T00:54:30;6.30;;;4.17;;
71836;SDS011;59686;51.716;7.016;2024-01-16T00:56:55;8.87;;;4.23;;
71836;SDS011;59686;51.716;7.016;2024-01-16T00:59:25;5.03;;;4.10;;
71836;SDS011;59686;51.716;7.016;2024-01-16T01:02:07;5.43;;;3.57;;
71836;SDS011;59686;51.716;7.016;2024-01-16T01:04:34;6.20;;;4.27;;
71836;SDS011;59686;51.716;7.016;2024-01-16T01:07:00;7.03;;;4.07;;
71836;SDS011;59686;51.716;7.016;2024-01-16T01:09:26;4.90;;;3.90;;
71836;SDS011;59686;51.716;7.016;2024-01-16T01:11:51;6.77;;;4.00;;
71836;SDS011;59686;51.716;7.016;2024-01-16T01:14:17;6.93;;;4.03;;
71836;SDS011;59686;51.716;7.016;2024-01-16T01:16:43;7.53;;;3.97;;
71836;SDS011;59686;51.716;7.016;2024-01-16T01:19:08;6.77;;;3.73;;
71836;SDS011;59686;51.716;7.016;2024-01-16T01:21:35;8.17;;;3.90;;
71836;SDS011;59686;51.716;7.016;2024-01-16T01:24:01;6.20;;;3.80;;
71836;SDS011;59686;51.716;7.016;2024-01-16T01:26:30;8.47;;;3.83;;
71836;SDS011;59686;51.716;7.016;2024-01-16T01:28:56;7.13;;;4.00;;
71836;SDS011;59686;51.716;7.016;2024-01-16T01:31:22;7.83;;;4.00;;
71836;SDS011;59686;51.716;7.016;2024-01-16T01:33:48;7.33;;;3.77;;
71836;SDS011;59686;51.716;7.016;2024-01-16T01:36:13;5.97;;;3.53;;
71836;SDS011;59686;51.716;7.016;2024-01-16T01:38:39;8.63;;;3.83;;
71836;SDS011;59686;51.716;7.016;2024-01-16T01:41:11;6.57;;;3.60;;
71836;SDS011;59686;51.716;7.016;2024-01-16T01:43:37;7.03;;;3.93;;
71836;SDS011;59686;51.716;7.016;2024-01-16T01:48:34;5.67;;;3.60;;
71836;SDS011;59686;51.716;7.016;2024-01-16T01:51:01;9.10;;;4.00;;
71836;SDS011;59686;51.716;7.016;2024-01-16T01:53:28;6.47;;;3.40;;
71836;SDS011;59686;51.716;7.016;2024-01-16T01:55:56;7.63;;;3.67;;
71836;SDS011;59686;51.716;7.016;2024-01-16T01:58:22;6.60;;;3.40;;
71836;SDS011;59686;51.716;7.016;2024-01-16T02:00:48;7.30;;;3.37;;
71836;SDS011;59686;51.716;7.016;2024-01-16T02:03:14;5.33;;;3.87;;
71836;SDS011;59686;51.716;7.016;2024-01-16T02:05:40;6.73;;;3.10;;
71836;SDS011;59686;51.716;7.016;2024-01-16T02:08:07;5.00;;;3.30;;
71836;SDS011;59686;51.716;7.016;2024-01-16T02:10:34;7.70;;;3.37;;
71836;SDS011;59686;51.716;7.016;2024-01-16T02:26:30;8.43;;;3.10;;
71836;SDS011;59686;51.716;7.016;2024-01-16T02:28:56;6.13;;;3.67;;
71836;SDS011;59686;51.716;7.016;2024-01-16T02:31:21;5.93;;;3.60;;
71836;SDS011;59686;51.716;7.016;2024-01-16T02:33:47;5.43;;;3.50;;
71836;SDS011;59686;51.716;7.016;2024-01-16T02:36:13;7.17;;;3.50;;
71836;SDS011;59686;51.716;7.016;2024-01-16T02:38:38;7.00;;;3.33;;
71836;SDS011;59686;51.716;7.016;2024-01-16T02:41:05;6.53;;;3.33;;
71836;SDS011;59686;51.716;7.016;2024-01-16T02:43:32;5.40;;;3.20;;
71836;SDS011;59686;51.716;7.016;2024-01-16T02:45:58;7.73;;;3.57;;
71836;SDS011;59686;51.716;7.016;2024-01-16T02:48:23;7.53;;;3.40;;
71836;SDS011;59686;51.716;7.016;2024-01-16T02:50:49;6.80;;;3.07;;
71836;SDS011;59686;51.716;7.016;2024-01-16T02:53:15;5.57;;;3.37;;
71836;SDS011;59686;51.716;7.016;2024-01-16T02:55:40;9.23;;;3.63;;
71836;SDS011;59686;51.716;7.016;2024-01-16T02:58:06;5.93;;;3.30;;
71836;SDS011;59686;51.716;7.016;2024-01-16T03:00:32;5.80;;;3.50;;
71836;SDS011;59686;51.716;7.016;2024-01-16T03:02:58;4.20;;;3.33;;
71836;SDS011;59686;51.716;7.016;2024-01-16T03:05:23;3.63;;;2.90;;
71836;SDS011;59686;51.716;7.016;2024-01-16T03:07:49;6.10;;;3.27;;
71836;SDS011;59686;51.716;7.016;2024-01-16T03:10:15;5.00;;;3.43;;
71836;SDS011;59686;51.716;7.016;2024-01-16T03:12:40;5.60;;;3.67;;
71836;SDS011;59686;51.716;7.016;2024-01-16T03:15:06;5.17;;;3.83;;
71836;SDS011;59686;51.716;7.016;2024-01-16T03:17:32;6.30;;;3.10;;
71836;SDS011;59686;51.716;7.016;2024-01-16T03:19:57;4.77;;;3.33;;
71836;SDS011;59686;51.716;7.016;2024-01-16T03:22:23;4.53;;;3.43;;
71836;SDS011;59686;51.716;7.016;2024-01-16T03:24:49;4.50;;;3.40;;
71836;SDS011;59686;51.716;7.016;2024-01-16T03:27:15;5.77;;;3.30;;
71836;SDS011;59686;51.716;7.016;2024-01-16T03:29:41;7.23;;;3.50;;
71836;SDS011;59686;51.716;7.016;2024-01-16T03:32:21;4.00;;;3.50;;
71836;SDS011;59686;51.716;7.016;2024-01-16T03:34:47;6.80;;;3.20;;
71836;SDS011;59686;51.716;7.016;2024-01-16T03:37:12;7.43;;;3.77;;
71836;SDS011;59686;51.716;7.016;2024-01-16T03:39:38;6.87;;;3.43;;
71836;SDS011;59686;51.716;7.016;2024-01-16T03:42:04;5.60;;;3.60;;
71836;SDS011;59686;51.716;7.016;2024-01-16T03:44:29;4.17;;;3.30;;
71836;SDS011;59686;51.716;7.016;2024-01-16T03:46:55;5.77;;;3.70;;
71836;SDS011;59686;51.716;7.016;2024-01-16T03:49:21;4.30;;;3.20;;
71836;SDS011;59686;51.716;7.016;2024-01-16T03:51:46;5.07;;;3.67;;
71836;SDS011;59686;51.716;7.016;2024-01-16T03:54:12;5.30;;;3.80;;
71836;SDS011;59686;51.716;7.016;2024-01-16T03:56:38;6.13;;;3.87;;
71836;SDS011;59686;51.716;7.016;2024-01-16T03:59:05;5.27;;;3.57;;
71836;SDS011;59686;51.716;7.016;2024-01-16T04:01:31;5.00;;;3.53;;
71836;SDS011;59686;51.716;7.016;2024-01-16T04:03:57;6.47;;;4.20;;
71836;SDS011;59686;51.716;7.016;2024-01-16T04:06:30;5.73;;;3.60;;
71836;SDS011;59686;51.716;7.016;2024-01-16T04:08:57;5.00;;;4.10;;
71836;SDS011;59686;51.716;7.016;2024-01-16T04:11:23;5.00;;;3.60;;
71836;SDS011;59686;51.716;7.016;2024-01-16T04:13:49;6.97;;;4.27;;
71836;SDS011;59686;51.716;7.016;2024-01-16T04:16:15;7.33;;;4.27;;
71836;SDS011;59686;51.716;7.016;2024-01-16T04:18:43;6.57;;;4.07;;
71836;SDS011;59686;51.716;7.016;2024-01-16T04:21:09;5.37;;;3.67;;
71836;SDS011;59686;51.716;7.016;2024-01-16T04:23:35;4.70;;;4.13;;
71836;SDS011;59686;51.716;7.016;2024-01-16T04:26:00;6.17;;;4.50;;
71836;SDS011;59686;51.716;7.016;2024-01-16T04:28:26;7.80;;;4.50;;
71836;SDS011;59686;51.716;7.016;2024-01-16T04:30:52;7.63;;;4.20;;
71836;SDS011;59686;51.716;7.016;2024-01-16T04:33:17;9.30;;;4.40;;
71836;SDS011;59686;51.716;7.016;2024-01-16T04:35:43;6.90;;;4.47;;
71836;SDS011;59686;51.716;7.016;2024-01-16T04:38:09;5.37;;;4.40;;
71836;SDS011;59686;51.716;7.016;2024-01-16T04:40:35;6.13;;;4.10;;
71836;SDS011;59686;51.716;7.016;2024-01-16T04:43:00;7.67;;;4.30;;
71836;SDS011;59686;51.716;7.016;2024-01-16T04:45:26;11.03;;;4.00;;
71836;SDS011;59686;51.716;7.016;2024-01-16T04:47:52;6.00;;;4.30;;
71836;SDS011;59686;51.716;7.016;2024-01-16T04:50:18;8.03;;;4.43;;
71836;SDS011;59686;51.716;7.016;2024-01-16T04:52:44;5.93;;;4.53;;
71836;SDS011;59686;51.716;7.016;2024-01-16T04:55:10;6.90;;;4.50;;
71836;SDS011;59686;51.716;7.016;2024-01-16T04:57:36;6.67;;;4.87;;
71836;SDS011;59686;51.716;7.016;2024-01-16T05:00:01;7.67;;;4.30;;
71836;SDS011;59686;51.716;7.016;2024-01-16T05:02:32;7.47;;;4.47;;
71836;SDS011;59686;51.716;7.016;2024-01-16T05:04:58;6.77;;;4.83;;
71836;SDS011;59686;51.716;7.016;2024-01-16T05:07:24;8.23;;;4.70;;
71836;SDS011;59686;51.716;7.016;2024-01-16T05:09:50;8.80;;;4.53;;
71836;SDS011;59686;51.716;7.016;2024-01-16T05:12:27;6.20;;;4.57;;
71836;SDS011;59686;51.716;7.016;2024-01-16T05:14:52;5.83;;;4.47;;
71836;SDS011;59686;51.716;7.016;2024-01-16T05:17:18;6.67;;;4.93;;
71836;SDS011;59686;51.716;7.016;2024-01-16T05:19:44;5.57;;;4.37;;
71836;SDS011;59686;51.716;7.016;2024-01-16T05:22:10;5.50;;;4.10;;
71836;SDS011;59686;51.716;7.016;2024-01-16T05:24:36;5.83;;;3.90;;
71836;SDS011;59686;51.716;7.016;2024-01-16T05:27:01;9.10;;;4.00;;
71836;SDS011;59686;51.716;7.016;2024-01-16T05:29:29;10.70;;;4.53;;
71836;SDS011;59686;51.716;7.016;2024-01-16T05:31:56;7.33;;;4.33;;
71836;SDS011;59686;51.716;7.016;2024-01-16T05:34:22;7.57;;;4.13;;
71836;SDS011;59686;51.716;7.016;2024-01-16T05:36:47;7.77;;;4.17;;
71836;SDS011;59686;51.716;7.016;2024-01-16T05:39:13;7.57;;;4.10;;
71836;SDS011;59686;51.716;7.016;2024-01-16T05:41:39;6.47;;;4.60;;
71836;SDS011;59686;51.716;7.016;2024-01-16T05:44:05;4.93;;;3.83;;
71836;SDS011;59686;51.716;7.016;2024-01-16T05:46:31;6.93;;;3.90;;
71836;SDS011;59686;51.716;7.016;2024-01-16T05:48:57;7.37;;;4.47;;
71836;SDS011;59686;51.716;7.016;2024-01-16T05:51:23;4.77;;;3.73;;
71836;SDS011;59686;51.716;7.016;2024-01-16T05:53:50;6.13;;;3.87;;
71836;SDS011;59686;51.716;7.016;2024-01-16T05:56:16;4.57;;;3.60;;
71836;SDS011;59686;51.716;7.016;2024-01-16T05:58:41;6.47;;;4.13;;
71836;SDS011;59686;51.716;7.016;2024-01-16T06:01:07;7.23;;;4.27;;
71836;SDS011;59686;51.716;7.016;2024-01-16T06:03:33;7.47;;;4.17;;
71836;SDS011;59686;51.716;7.016;2024-01-16T06:05:58;6.33;;;3.57;;
71836;SDS011;59686;51.716;7.016;2024-01-16T06:08:25;7.93;;;3.60;;
71836;SDS011;59686;51.716;7.016;2024-01-16T06:10:50;5.73;;;3.83;;
71836;SDS011;59686;51.716;7.016;2024-01-16T06:13:18;5.07;;;3.40;;
71836;SDS011;59686;51.716;7.016;2024-01-16T06:15:44;6.10;;;3.17;;
71836;SDS011;59686;51.716;7.016;2024-01-16T06:18:10;8.03;;;3.73;;
71836;SDS011;59686;51.716;7.016;2024-01-16T06:20:36;5.60;;;3.50;;
71836;SDS011;59686;51.716;7.016;2024-01-16T06:23:01;5.47;;;3.40;;
71836;SDS011;59686;51.716;7.016;2024-01-16T06:25:27;6.67;;;3.40;;
71836;SDS011;59686;51.716;7.016;2024-01-16T06:27:53;6.67;;;3.60;;
71836;SDS011;59686;51.716;7.016;2024-01-16T06:30:18;5.87;;;3.57;;
71836;SDS011;59686;51.716;7.016;2024-01-16T06:32:44;6.37;;;3.33;;
71836;SDS011;59686;51.716;7.016;2024-01-16T06:35:12;3.70;;;3.03;;
71836;SDS011;59686;51.716;7.016;2024-01-16T06:37:38;6.07;;;3.20;;
71836;SDS011;59686;51.716;7.016;2024-01-16T06:40:03;6.53;;;3.60;;
71836;SDS011;59686;51.716;7.016;2024-01-16T06:42:30;5.27;;;3.20;;
71836;SDS011;59686;51.716;7.016;2024-01-16T06:44:56;7.53;;;3.53;;
71836;SDS011;59686;51.716;7.016;2024-01-16T06:47:26;5.37;;;3.50;;
71836;SDS011;59686;51.716;7.016;2024-01-16T06:49:52;5.83;;;3.77;;
71836;SDS011;59686;51.716;7.016;2024-01-16T06:52:17;6.73;;;3.87;;
71836;SDS011;59686;51.716;7.016;2024-01-16T06:54:47;5.43;;;4.00;;
71836;SDS011;59686;51.716;7.016;2024-01-16T06:57:20;7.03;;;4.07;;
71836;SDS011;59686;51.716;7.016;2024-01-16T06:59:46;10.47;;;4.23;;
71836;SDS011;59686;51.716;7.016;2024-01-16T07:02:12;7.17;;;4.63;;
71836;SDS011;59686;51.716;7.016;2024-01-16T07:04:39;8.53;;;5.07;;
71836;SDS011;59686;51.716;7.016;2024-01-16T07:07:05;7.90;;;5.27;;
71836;SDS011;59686;51.716;7.016;2024-01-16T07:09:31;8.07;;;5.27;;
71836;SDS011;59686;51.716;7.016;2024-01-16T07:11:57;9.00;;;5.40;;
71836;SDS011;59686;51.716;7.016;2024-01-16T07:14:22;6.73;;;5.13;;
71836;SDS011;59686;51.716;7.016;2024-01-16T07:19:34;7.57;;;5.50;;
71836;SDS011;59686;51.716;7.016;2024-01-16T07:22:04;8.33;;;6.23;;
71836;SDS011;59686;51.716;7.016;2024-01-16T07:24:32;6.77;;;5.67;;
71836;SDS011;59686;51.716;7.016;2024-01-16T07:26:57;9.03;;;6.50;;
71836;SDS011;59686;51.716;7.016;2024-01-16T07:29:23;9.87;;;6.27;;
71836;SDS011;59686;51.716;7.016;2024-01-16T07:31:49;8.07;;;6.20;;
71836;SDS011;59686;51.716;7.016;2024-01-16T07:34:14;10.53;;;7.00;;
71836;SDS011;59686;51.716;7.016;2024-01-16T07:36:46;9.10;;;6.80;;
71836;SDS011;59686;51.716;7.016;2024-01-16T07:39:23;10.03;;;6.77;;
71836;SDS011;59686;51.716;7.016;2024-01-16T07:44:39;12.50;;;7.80;;
71836;SDS011;59686;51.716;7.016;2024-01-16T07:47:11;11.57;;;7.50;;
71836;SDS011;59686;51.716;7.016;2024-01-16T07:49:37;13.77;;;8.23;;
71836;SDS011;59686;51.716;7.016;2024-01-16T07:52:06;10.40;;;8.40;;
71836;SDS011;59686;51.716;7.016;2024-01-16T07:54:38;14.67;;;8.20;;
71836;SDS011;59686;51.716;7.016;2024-01-16T07:57:04;12.50;;;8.90;;
71836;SDS011;59686;51.716;7.016;2024-01-16T07:59:30;11.07;;;8.33;;
71836;SDS011;59686;51.716;7.016;2024-01-16T08:01:57;10.97;;;8.47;;
71836;SDS011;59686;51.716;7.016;2024-01-16T08:04:30;15.37;;;8.90;;
71836;SDS011;59686;51.716;7.016;2024-01-16T08:09:31;12.50;;;8.57;;
71836;SDS011;59686;51.716;7.016;2024-01-16T08:12:00;11.83;;;8.07;;
71836;SDS011;59686;51.716;7.016;2024-01-16T08:14:27;15.17;;;8.60;;
71836;SDS011;59686;51.716;7.016;2024-01-16T08:19:26;14.83;;;8.20;;
71836;SDS011;59686;51.716;7.016;2024-01-16T08:21:54;10.50;;;8.37;;
71836;SDS011;59686;51.716;7.016;2024-01-16T08:24:23;12.30;;;8.40;;
71836;SDS011;59686;51.716;7.016;2024-01-16T08:26:56;11.30;;;8.10;;
71836;SDS011;59686;51.716;7.016;2024-01-16T08:29:25;13.00;;;8.00;;
71836;SDS011;59686;51.716;7.016;2024-01-16T08:32:02;12.63;;;8.00;;
71836;SDS011;59686;51.716;7.016;2024-01-16T08:34:31;13.73;;;7.63;;
71836;SDS011;59686;51.716;7.016;2024-01-16T08:37:14;12.33;;;7.90;;
71836;SDS011;59686;51.716;7.016;2024-01-16T08:39:42;10.50;;;7.27;;
71836;SDS011;59686;51.716;7.016;2024-01-16T08:42:08;9.47;;;7.27;;
71836;SDS011;59686;51.716;7.016;2024-01-16T08:44:45;11.00;;;6.07;;
71836;SDS011;59686;51.716;7.016;2024-01-16T08:47:17;9.30;;;6.33;;
71836;SDS011;59686;51.716;7.016;2024-01-16T08:49:45;11.90;;;6.77;;
71836;SDS011;59686;51.716;7.016;2024-01-16T08:52:27;12.80;;;6.53;;
71836;SDS011;59686;51.716;7.016;2024-01-16T08:54:55;8.67;;;6.07;;
71836;SDS011;59686;51.716;7.016;2024-01-16T08:57:40;10.60;;;6.03;;
71836;SDS011;59686;51.716;7.016;2024-01-16T09:00:10;9.57;;;5.63;;
71836;SDS011;59686;51.716;7.016;2024-01-16T09:02:41;7.10;;;5.53;;
71836;SDS011;59686;51.716;7.016;2024-01-16T09:05:21;12.13;;;5.40;;
71836;SDS011;59686;51.716;7.016;2024-01-16T09:07:50;9.80;;;5.10;;
71836;SDS011;59686;51.716;7.016;2024-01-16T09:10:17;6.67;;;4.90;;
71836;SDS011;59686;51.716;7.016;2024-01-16T09:12:46;8.67;;;4.77;;
71836;SDS011;59686;51.716;7.016;2024-01-16T09:15:13;12.07;;;5.00;;
71836;SDS011;59686;51.716;7.016;2024-01-16T09:17:39;8.60;;;4.70;;
71836;SDS011;59686;51.716;7.016;2024-01-16T09:20:05;10.17;;;5.30;;
71836;SDS011;59686;51.716;7.016;2024-01-16T09:28:20;8.27;;;4.40;;
71836;SDS011;59686;51.716;7.016;2024-01-16T09:30:47;9.83;;;4.67;;
71836;SDS011;59686;51.716;7.016;2024-01-16T09:33:15;7.67;;;3.90;;
71836;SDS011;59686;51.716;7.016;2024-01-16T09:35:41;8.30;;;4.47;;
71836;SDS011;59686;51.716;7.016;2024-01-16T09:38:19;6.53;;;4.50;;
71836;SDS011;59686;51.716;7.016;2024-01-16T09:40:59;9.87;;;4.50;;
71836;SDS011;59686;51.716;7.016;2024-01-16T09:43:41;7.73;;;3.97;;
71836;SDS011;59686;51.716;7.016;2024-01-16T09:46:09;7.27;;;3.50;;
71836;SDS011;59686;51.716;7.016;2024-01-16T09:48:37;8.10;;;4.20;;
71836;SDS011;59686;51.716;7.016;2024-01-16T09:51:07;6.47;;;3.57;;
71836;SDS011;59686;51.716;7.016;2024-01-16T09:53:47;13.20;;;3.67;;
71836;SDS011;59686;51.716;7.016;2024-01-16T09:56:31;8.17;;;3.50;;
71836;SDS011;59686;51.716;7.016;2024-01-16T09:58:58;6.00;;;3.30;;
71836;SDS011;59686;51.716;7.016;2024-01-16T10:01:30;6.00;;;3.57;;
71836;SDS011;59686;51.716;7.016;2024-01-16T10:03:58;6.67;;;3.57;;
71836;SDS011;59686;51.716;7.016;2024-01-16T10:06:31;8.37;;;3.93;;
71836;SDS011;59686;51.716;7.016;2024-01-16T10:09:03;6.03;;;3.30;;
71836;SDS011;59686;51.716;7.016;2024-01-16T10:11:29;6.23;;;3.40;;
71836;SDS011;59686;51.716;7.016;2024-01-16T10:14:01;5.00;;;3.50;;
71836;SDS011;59686;51.716;7.016;2024-01-16T10:19:20;7.17;;;4.03;;
71836;SDS011;59686;51.716;7.016;2024-01-16T10:22:02;6.33;;;3.50;;
71836;SDS011;59686;51.716;7.016;2024-01-16T10:24:41;6.27;;;3.23;;
71836;SDS011;59686;51.716;7.016;2024-01-16T10:27:07;7.27;;;3.70;;
71836;SDS011;59686;51.716;7.016;2024-01-16T10:35:12;5.87;;;3.40;;
71836;SDS011;59686;51.716;7.016;2024-01-16T10:37:51;7.77;;;3.40;;
71836;SDS011;59686;51.716;7.016;2024-01-16T10:43:15;8.77;;;3.37;;
71836;SDS011;59686;51.716;7.016;2024-01-16T10:45:43;6.33;;;2.70;;
71836;SDS011;59686;51.716;7.016;2024-01-16T10:48:20;5.83;;;3.10;;
71836;SDS011;59686;51.716;7.016;2024-01-16T10:50:49;7.60;;;3.27;;
71836;SDS011;59686;51.716;7.016;2024-01-16T10:53:21;10.33;;;3.50;;
71836;SDS011;59686;51.716;7.016;2024-01-16T10:58:36;7.70;;;3.60;;
71836;SDS011;59686;51.716;7.016;2024-01-16T11:01:09;7.70;;;3.20;;
71836;SDS011;59686;51.716;7.016;2024-01-16T11:03:43;7.17;;;3.47;;
71836;SDS011;59686;51.716;7.016;2024-01-16T11:06:20;8.90;;;3.33;;
71836;SDS011;59686;51.716;7.016;2024-01-16T11:08:47;6.73;;;3.10;;
71836;SDS011;59686;51.716;7.016;2024-01-16T11:11:14;6.43;;;3.50;;
71836;SDS011;59686;51.716;7.016;2024-01-16T11:13:42;7.53;;;3.37;;
71836;SDS011;59686;51.716;7.016;2024-01-16T11:16:11;6.67;;;3.07;;
71836;SDS011;59686;51.716;7.016;2024-01-16T11:18:46;8.37;;;3.17;;
71836;SDS011;59686;51.716;7.016;2024-01-16T11:21:18;6.93;;;3.30;;
71836;SDS011;59686;51.716;7.016;2024-01-16T11:23:44;5.83;;;3.33;;
71836;SDS011;59686;51.716;7.016;2024-01-16T11:29:38;9.80;;;3.80;;
71836;SDS011;59686;51.716;7.016;2024-01-16T11:31:57;7.63;;;3.30;;
71836;SDS011;59686;51.716;7.016;2024-01-16T11:37:07;9.27;;;3.47;;
71836;SDS011;59686;51.716;7.016;2024-01-16T11:39:34;7.33;;;3.30;;
71836;SDS011;59686;51.716;7.016;2024-01-16T11:42:00;7.30;;;3.43;;
71836;SDS011;59686;51.716;7.016;2024-01-16T11:47:21;5.80;;;3.73;;
71836;SDS011;59686;51.716;7.016;2024-01-16T11:49:51;5.70;;;3.27;;
71836;SDS011;59686;51.716;7.016;2024-01-16T11:52:42;5.73;;;2.77;;
71836;SDS011;59686;51.716;7.016;2024-01-16T12:01:19;8.30;;;2.97;;
71836;SDS011;59686;51.716;7.016;2024-01-16T12:03:46;7.10;;;3.67;;
71836;SDS011;59686;51.716;7.016;2024-01-16T12:06:15;10.40;;;3.30;;
71836;SDS011;59686;51.716;7.016;2024-01-16T12:08:41;8.20;;;3.50;;
71836;SDS011;59686;51.716;7.016;2024-01-16T12:11:07;7.90;;;3.00;;
71836;SDS011;59686;51.716;7.016;2024-01-16T12:13:32;10.70;;;3.50;;
71836;SDS011;59686;51.716;7.016;2024-01-16T12:16:02;6.80;;;3.07;;
71836;SDS011;59686;51.716;7.016;2024-01-16T12:18:31;10.63;;;3.57;;
71836;SDS011;59686;51.716;7.016;2024-01-16T12:20:56;8.50;;;3.23;;
71836;SDS011;59686;51.716;7.016;2024-01-16T12:23:23;8.53;;;3.17;;
71836;SDS011;59686;51.716;7.016;2024-01-16T12:28:27;6.50;;;3.37;;
71836;SDS011;59686;51.716;7.016;2024-01-16T12:30:53;7.47;;;3.37;;
71836;SDS011;59686;51.716;7.016;2024-01-16T12:33:21;5.13;;;3.33;;
71836;SDS011;59686;51.716;7.016;2024-01-16T12:35:47;8.50;;;3.50;;
71836;SDS011;59686;51.716;7.016;2024-01-16T12:38:14;7.83;;;3.60;;
71836;SDS011;59686;51.716;7.016;2024-01-16T12:43:50;6.20;;;3.33;;
71836;SDS011;59686;51.716;7.016;2024-01-16T12:46:16;7.07;;;3.50;;
71836;SDS011;59686;51.716;7.016;2024-01-16T12:48:44;7.73;;;3.67;;
71836;SDS011;59686;51.716;7.016;2024-01-16T12:51:12;7.10;;;3.33;;
71836;SDS011;59686;51.716;7.016;2024-01-16T12:53:46;4.80;;;2.77;;
71836;SDS011;59686;51.716;7.016;2024-01-16T12:56:12;10.57;;;3.93;;
71836;SDS011;59686;51.716;7.016;2024-01-16T12:58:37;7.07;;;3.10;;
71836;SDS011;59686;51.716;7.016;2024-01-16T13:04:23;5.57;;;3.10;;
71836;SDS011;59686;51.716;7.016;2024-01-16T13:06:49;8.33;;;3.23;;
71836;SDS011;59686;51.716;7.016;2024-01-16T13:09:15;7.60;;;3.73;;
71836;SDS011;59686;51.716;7.016;2024-01-16T13:11:44;8.67;;;3.40;;
71836;SDS011;59686;51.716;7.016;2024-01-16T13:14:14;8.57;;;3.77;;
71836;SDS011;59686;51.716;7.016;2024-01-16T13:16:40;6.87;;;3.63;;
71836;SDS011;59686;51.716;7.016;2024-01-16T13:19:06;6.33;;;2.87;;
71836;SDS011;59686;51.716;7.016;2024-01-16T13:21:35;10.57;;;3.50;;
71836;SDS011;59686;51.716;7.016;2024-01-16T13:24:02;6.47;;;3.40;;
71836;SDS011;59686;51.716;7.016;2024-01-16T13:26:29;7.23;;;3.50;;
71836;SDS011;59686;51.716;7.016;2024-01-16T13:28:55;7.70;;;3.73;;
71836;SDS011;59686;51.716;7.016;2024-01-16T13:31:20;6.37;;;3.50;;
71836;SDS011;59686;51.716;7.016;2024-01-16T13:33:46;7.83;;;3.43;;
71836;SDS011;59686;51.716;7.016;2024-01-16T13:38:53;6.23;;;3.40;;
71836;SDS011;59686;51.716;7.016;2024-01-16T13:41:19;8.53;;;3.67;;
71836;SDS011;59686;51.716;7.016;2024-01-16T13:43:46;5.57;;;3.70;;
71836;SDS011;59686;51.716;7.016;2024-01-16T13:46:15;11.23;;;4.00;;
71836;SDS011;59686;51.716;7.016;2024-01-16T13:48:43;10.10;;;3.67;;
71836;SDS011;59686;51.716;7.016;2024-01-16T13:51:17;10.43;;;3.67;;
71836;SDS011;59686;51.716;7.016;2024-01-16T13:53:43;5.87;;;3.63;;
71836;SDS011;59686;51.716;7.016;2024-01-16T13:56:18;6.93;;;3.80;;
71836;SDS011;59686;51.716;7.016;2024-01-16T13:58:43;7.50;;;3.87;;
71836;SDS011;59686;51.716;7.016;2024-01-16T14:01:10;8.60;;;4.10;;
71836;SDS011;59686;51.716;7.016;2024-01-16T14:03:36;5.97;;;3.67;;
71836;SDS011;59686;51.716;7.016;2024-01-16T14:06:02;6.63;;;3.70;;
71836;SDS011;59686;51.716;7.016;2024-01-16T14:08:29;9.20;;;4.30;;
71836;SDS011;59686;51.716;7.016;2024-01-16T14:10:54;8.27;;;3.50;;
71836;SDS011;59686;51.716;7.016;2024-01-16T14:13:21;5.43;;;3.37;;
71836;SDS011;59686;51.716;7.016;2024-01-16T14:15:46;7.20;;;3.90;;
71836;SDS011;59686;51.716;7.016;2024-01-16T14:18:12;7.13;;;3.73;;
71836;SDS011;59686;51.716;7.016;2024-01-16T14:20:38;6.23;;;3.70;;
71836;SDS011;59686;51.716;7.016;2024-01-16T14:23:04;9.40;;;3.77;;
71836;SDS011;59686;51.716;7.016;2024-01-16T14:25:29;6.77;;;3.70;;
71836;SDS011;59686;51.716;7.016;2024-01-16T14:30:28;8.37;;;3.60;;
71836;SDS011;59686;51.716;7.016;2024-01-16T14:32:54;9.00;;;3.83;;
71836;SDS011;59686;51.716;7.016;2024-01-16T14:35:21;5.70;;;3.80;;
71836;SDS011;59686;51.716;7.016;2024-01-16T14:37:49;9.73;;;4.30;;
71836;SDS011;59686;51.716;7.016;2024-01-16T14:40:15;6.67;;;3.60;;
71836;SDS011;59686;51.716;7.016;2024-01-16T14:42:49;6.80;;;3.70;;
71836;SDS011;59686;51.716;7.016;2024-01-16T14:45:19;6.00;;;3.93;;
71836;SDS011;59686;51.716;7.016;2024-01-16T14:47:48;6.50;;;3.70;;
71836;SDS011;59686;51.716;7.016;2024-01-16T14:50:16;7.93;;;4.33;;
71836;SDS011;59686;51.716;7.016;2024-01-16T14:52:43;8.00;;;4.00;;
71836;SDS011;59686;51.716;7.016;2024-01-16T14:55:18;7.50;;;4.27;;
71836;SDS011;59686;51.716;7.016;2024-01-16T14:57:47;8.83;;;4.43;;
71836;SDS011;59686;51.716;7.016;2024-01-16T15:00:18;8.87;;;4.13;;
71836;SDS011;59686;51.716;7.016;2024-01-16T15:02:53;10.90;;;4.00;;
71836;SDS011;59686;51.716;7.016;2024-01-16T15:05:19;7.53;;;3.80;;
71836;SDS011;59686;51.716;7.016;2024-01-16T15:07:55;7.57;;;3.90;;
71836;SDS011;59686;51.716;7.016;2024-01-16T15:10:21;8.17;;;3.80;;
71836;SDS011;59686;51.716;7.016;2024-01-16T15:12:48;8.70;;;4.47;;
71836;SDS011;59686;51.716;7.016;2024-01-16T15:15:14;6.33;;;3.70;;
71836;SDS011;59686;51.716;7.016;2024-01-16T15:17:41;9.80;;;4.33;;
71836;SDS011;59686;51.716;7.016;2024-01-16T15:20:10;7.87;;;4.47;;
71836;SDS011;59686;51.716;7.016;2024-01-16T15:22:40;7.23;;;4.20;;
71836;SDS011;59686;51.716;7.016;2024-01-16T15:25:07;10.23;;;4.20;;
71836;SDS011;59686;51.716;7.016;2024-01-16T15:27:33;9.50;;;5.07;;
71836;SDS011;59686;51.716;7.016;2024-01-16T15:30:00;7.90;;;4.70;;
71836;SDS011;59686;51.716;7.016;2024-01-16T15:32:27;7.50;;;4.17;;
71836;SDS011;59686;51.716;7.016;2024-01-16T15:34:52;8.67;;;4.37;;
71836;SDS011;59686;51.716;7.016;2024-01-16T15:37:18;7.70;;;4.30;;
71836;SDS011;59686;51.716;7.016;2024-01-16T15:39:44;8.50;;;4.03;;
71836;SDS011;59686;51.716;7.016;2024-01-16T15:42:11;8.00;;;4.20;;
71836;SDS011;59686;51.716;7.016;2024-01-16T15:44:37;6.27;;;3.93;;
71836;SDS011;59686;51.716;7.016;2024-01-16T15:47:03;7.63;;;4.30;;
71836;SDS011;59686;51.716;7.016;2024-01-16T15:49:29;9.50;;;4.30;;
71836;SDS011;59686;51.716;7.016;2024-01-16T15:52:00;8.37;;;4.83;;
71836;SDS011;59686;51.716;7.016;2024-01-16T15:54:39;7.03;;;4.37;;
71836;SDS011;59686;51.716;7.016;2024-01-16T15:57:05;7.60;;;4.10;;
71836;SDS011;59686;51.716;7.016;2024-01-16T15:59:48;6.20;;;3.70;;
71836;SDS011;59686;51.716;7.016;2024-01-16T16:02:14;7.43;;;4.37;;
71836;SDS011;59686;51.716;7.016;2024-01-16T16:04:40;7.60;;;4.37;;